STT768 LFML-LOWW
Flight info
| Callsign | STT768 |
|---|---|
| Flight time | 1h 27m |
| Altitude | 30000 |
| Route | ETREK DCT LUXAN DCT LTP DCT SOPLO DCT OMASI DCT KINNI/N0478F380 DCT SOSAL DCT KORED DCT BERSU DCT DITON DCT DEGES DCT GAMSA/N0483F370 DCT TULSI DCT INPUL DCT SI DCT NEMAL NEMAL2W |
| Aircraft | A346/H-SDE2E3FGHIJ3J4J5M1RWXY/LB1D1 |
Departure
| Time | 2026-05-07 17:35 |
|---|---|
| Airport | Marseille Provence Airport (LFML) |
Arrival
| Time | 2026-05-07 19:02 |
|---|---|
| Airport | Vienna International Airport (LOWW) |
| Time | Latitude | Longitude | Altitude | Speed | Heading |
|---|---|---|---|---|---|
| 2026-05-07 17:09 | 43.43802 | 5.22319 | 55 ft | 0 kts | 48° |
| 2026-05-07 17:24 | 43.43800 | 5.22316 | 55 ft | 3 kts | 48° |
| 2026-05-07 17:24 | 43.43782 | 5.22289 | 47 ft | 4 kts | 48° |
| 2026-05-07 17:25 | 43.43782 | 5.22288 | 47 ft | 4 kts | 39° |
| 2026-05-07 17:25 | 43.43800 | 5.22295 | 46 ft | 4 kts | 2° |
| 2026-05-07 17:25 | 43.43774 | 5.22296 | 47 ft | 4 kts | 0° |
| 2026-05-07 17:25 | 43.43751 | 5.22293 | 47 ft | 4 kts | 14° |
| 2026-05-07 17:26 | 43.43733 | 5.22282 | 47 ft | 4 kts | 43° |
| 2026-05-07 17:26 | 43.43728 | 5.22273 | 47 ft | 2 kts | 87° |
| 2026-05-07 17:26 | 43.43734 | 5.22349 | 48 ft | 0 kts | 257° |
| 2026-05-07 17:28 | 43.43733 | 5.22341 | 48 ft | 2 kts | 259° |
| 2026-05-07 17:29 | 43.43734 | 5.22311 | 48 ft | 5 kts | 273° |
| 2026-05-07 17:29 | 43.43737 | 5.22244 | 47 ft | 9 kts | 273° |
| 2026-05-07 17:29 | 43.43714 | 5.22162 | 53 ft | 11 kts | 223° |
| 2026-05-07 17:29 | 43.43694 | 5.22076 | 51 ft | 11 kts | 313° |
| 2026-05-07 17:30 | 43.43769 | 5.21993 | 51 ft | 16 kts | 321° |
| 2026-05-07 17:30 | 43.43861 | 5.21873 | 47 ft | 21 kts | 314° |
| 2026-05-07 17:30 | 43.43965 | 5.21725 | 43 ft | 15 kts | 312° |
| 2026-05-07 17:30 | 43.43949 | 5.21595 | 42 ft | 16 kts | 228° |
| 2026-05-07 17:31 | 43.43950 | 5.21454 | 40 ft | 18 kts | 302° |
| 2026-05-07 17:31 | 43.44039 | 5.21316 | 36 ft | 22 kts | 319° |
| 2026-05-07 17:31 | 43.44155 | 5.21169 | 32 ft | 26 kts | 315° |
| 2026-05-07 17:31 | 43.44272 | 5.20982 | 28 ft | 21 kts | 302° |
| 2026-05-07 17:32 | 43.44352 | 5.20796 | 29 ft | 24 kts | 313° |
| 2026-05-07 17:32 | 43.44472 | 5.20627 | 26 ft | 26 kts | 315° |
| 2026-05-07 17:32 | 43.44602 | 5.20445 | 31 ft | 27 kts | 314° |
| 2026-05-07 17:32 | 43.44694 | 5.20316 | 31 ft | 28 kts | 314° |
| 2026-05-07 17:33 | 43.44881 | 5.20047 | 29 ft | 30 kts | 314° |
| 2026-05-07 17:33 | 43.44967 | 5.19925 | 26 ft | 13 kts | 313° |
| 2026-05-07 17:33 | 43.44967 | 5.19822 | 30 ft | 13 kts | 224° |
| 2026-05-07 17:33 | 43.44904 | 5.19747 | 31 ft | 2 kts | 189° |
| 2026-05-07 17:34 | 43.44886 | 5.19768 | 31 ft | 5 kts | 133° |
| 2026-05-07 17:34 | 43.44792 | 5.19906 | 27 ft | 50 kts | 133° |
| 2026-05-07 17:34 | 43.44389 | 5.20481 | 28 ft | 114 kts | 134° |
| 2026-05-07 17:34 | 43.43705 | 5.21455 | 47 ft | 165 kts | 135° |
| 2026-05-07 17:35 | 43.42847 | 5.22713 | 370 ft | 186 kts | 136° |
| 2026-05-07 17:35 | 43.41967 | 5.24034 | 1088 ft | 188 kts | 130° |
| 2026-05-07 17:35 | 43.41268 | 5.25565 | 1826 ft | 189 kts | 124° |
| 2026-05-07 17:35 | 43.40762 | 5.27236 | 2507 ft | 192 kts | 97° |
| 2026-05-07 17:36 | 43.40891 | 5.29045 | 3198 ft | 190 kts | 78° |
| 2026-05-07 17:36 | 43.41227 | 5.30801 | 3860 ft | 189 kts | 64° |
| 2026-05-07 17:36 | 43.42146 | 5.32029 | 4541 ft | 188 kts | 20° |
| 2026-05-07 17:36 | 43.43467 | 5.32325 | 5055 ft | 199 kts | 0° |
| 2026-05-07 17:37 | 43.44878 | 5.32051 | 5482 ft | 214 kts | 340° |
| 2026-05-07 17:37 | 43.46268 | 5.31111 | 5891 ft | 231 kts | 332° |
| 2026-05-07 17:37 | 43.47718 | 5.30029 | 6454 ft | 240 kts | 333° |
| 2026-05-07 17:37 | 43.49192 | 5.29003 | 7161 ft | 240 kts | 334° |
| 2026-05-07 17:38 | 43.50706 | 5.28024 | 7909 ft | 241 kts | 335° |
| 2026-05-07 17:38 | 43.52239 | 5.27080 | 8682 ft | 242 kts | 336° |
| 2026-05-07 17:38 | 43.53796 | 5.26146 | 9428 ft | 245 kts | 335° |
| 2026-05-07 17:38 | 43.55366 | 5.25209 | 10163 ft | 247 kts | 335° |
| 2026-05-07 17:39 | 43.56954 | 5.24265 | 10817 ft | 249 kts | 335° |
| 2026-05-07 17:39 | 43.58576 | 5.23346 | 11385 ft | 258 kts | 338° |
| 2026-05-07 17:39 | 43.60333 | 5.22516 | 11746 ft | 276 kts | 340° |
| 2026-05-07 17:39 | 43.62214 | 5.21664 | 12156 ft | 294 kts | 340° |
| 2026-05-07 17:40 | 43.64221 | 5.20769 | 12573 ft | 312 kts | 341° |
| 2026-05-07 17:40 | 43.66346 | 5.19818 | 13004 ft | 330 kts | 340° |
| 2026-05-07 17:40 | 43.68588 | 5.18810 | 13432 ft | 348 kts | 340° |
| 2026-05-07 17:40 | 43.70948 | 5.17747 | 13833 ft | 366 kts | 340° |
| 2026-05-07 17:41 | 43.73424 | 5.16602 | 14177 ft | 384 kts | 339° |
| 2026-05-07 17:41 | 43.76007 | 5.15374 | 14562 ft | 399 kts | 339° |
| 2026-05-07 17:41 | 43.78653 | 5.14111 | 15235 ft | 404 kts | 339° |
| 2026-05-07 17:41 | 43.81325 | 5.12839 | 16024 ft | 408 kts | 339° |
| 2026-05-07 17:42 | 43.84023 | 5.11557 | 16793 ft | 412 kts | 339° |
| 2026-05-07 17:42 | 43.86766 | 5.10338 | 17545 ft | 417 kts | 342° |
| 2026-05-07 17:42 | 43.89553 | 5.09337 | 18233 ft | 422 kts | 346° |
| 2026-05-07 17:42 | 43.92455 | 5.08547 | 18848 ft | 427 kts | 348° |
| 2026-05-07 17:43 | 43.95399 | 5.07861 | 19489 ft | 431 kts | 349° |
| 2026-05-07 17:43 | 43.98381 | 5.07265 | 20109 ft | 437 kts | 354° |
| 2026-05-07 17:43 | 44.01434 | 5.07721 | 20673 ft | 445 kts | 13° |
| 2026-05-07 17:43 | 44.04383 | 5.09068 | 21347 ft | 448 kts | 19° |
| 2026-05-07 17:44 | 44.07320 | 5.10598 | 21948 ft | 453 kts | 19° |
| 2026-05-07 17:44 | 44.10293 | 5.12131 | 22524 ft | 458 kts | 19° |
| 2026-05-07 17:44 | 44.13307 | 5.13631 | 23119 ft | 462 kts | 18° |
| 2026-05-07 17:44 | 44.16357 | 5.15100 | 23714 ft | 465 kts | 17° |
| 2026-05-07 17:45 | 44.19440 | 5.16553 | 24203 ft | 469 kts | 17° |
| 2026-05-07 17:45 | 44.22547 | 5.17999 | 24691 ft | 473 kts | 16° |
| 2026-05-07 17:45 | 44.24612 | 5.18954 | 25002 ft | 475 kts | 16° |
| 2026-05-07 17:45 | 44.28838 | 5.20900 | 25633 ft | 481 kts | 16° |
| 2026-05-07 17:46 | 44.30946 | 5.21868 | 25955 ft | 483 kts | 16° |
| 2026-05-07 17:46 | 44.34151 | 5.23341 | 26450 ft | 486 kts | 16° |
| 2026-05-07 17:46 | 44.37374 | 5.24824 | 26946 ft | 489 kts | 15° |
| 2026-05-07 17:46 | 44.40620 | 5.26318 | 27390 ft | 493 kts | 15° |
| 2026-05-07 17:47 | 44.43892 | 5.27825 | 27841 ft | 497 kts | 15° |
| 2026-05-07 17:47 | 44.47195 | 5.29349 | 28295 ft | 501 kts | 15° |
| 2026-05-07 17:47 | 44.50516 | 5.30884 | 28822 ft | 503 kts | 15° |
| 2026-05-07 17:47 | 44.53829 | 5.32417 | 29529 ft | 501 kts | 15° |
| 2026-05-07 17:48 | 44.57133 | 5.33949 | 30213 ft | 499 kts | 15° |
| 2026-05-07 17:48 | 44.60422 | 5.35476 | 30772 ft | 498 kts | 15° |
| 2026-05-07 17:48 | 44.63708 | 5.37001 | 31306 ft | 497 kts | 15° |
| 2026-05-07 17:48 | 44.66974 | 5.38518 | 31838 ft | 498 kts | 15° |
| 2026-05-07 17:49 | 44.70264 | 5.40047 | 32366 ft | 497 kts | 14° |
| 2026-05-07 17:49 | 44.73515 | 5.41561 | 32893 ft | 497 kts | 14° |
| 2026-05-07 17:49 | 44.76838 | 5.43110 | 33432 ft | 497 kts | 14° |
| 2026-05-07 17:49 | 44.80077 | 5.44622 | 33916 ft | 496 kts | 14° |
| 2026-05-07 17:50 | 44.83323 | 5.46138 | 34325 ft | 496 kts | 14° |
| 2026-05-07 17:50 | 44.86604 | 5.47670 | 34773 ft | 496 kts | 14° |
| 2026-05-07 17:50 | 44.89796 | 5.49537 | 35163 ft | 500 kts | 25° |
| 2026-05-07 17:50 | 44.92717 | 5.52207 | 35585 ft | 502 kts | 36° |
| 2026-05-07 17:51 | 44.95332 | 5.55514 | 36025 ft | 505 kts | 43° |
| 2026-05-07 17:51 | 44.97841 | 5.59023 | 36249 ft | 509 kts | 44° |
| 2026-05-07 17:51 | 45.00344 | 5.62593 | 36384 ft | 514 kts | 44° |
| 2026-05-07 17:51 | 45.02879 | 5.66203 | 36525 ft | 519 kts | 44° |
| 2026-05-07 17:52 | 45.05444 | 5.69833 | 36667 ft | 523 kts | 44° |
| 2026-05-07 17:52 | 45.08027 | 5.73466 | 36799 ft | 524 kts | 43° |
| 2026-05-07 17:52 | 45.10622 | 5.77106 | 36928 ft | 524 kts | 43° |
| 2026-05-07 17:52 | 45.13212 | 5.80734 | 37048 ft | 524 kts | 43° |
| 2026-05-07 17:53 | 45.15815 | 5.84377 | 37193 ft | 524 kts | 43° |
| 2026-05-07 17:53 | 45.18410 | 5.88012 | 37333 ft | 525 kts | 43° |
| 2026-05-07 17:53 | 45.21003 | 5.91648 | 37476 ft | 524 kts | 43° |
| 2026-05-07 17:53 | 45.23599 | 5.95291 | 37612 ft | 524 kts | 43° |
| 2026-05-07 17:54 | 45.26194 | 5.98939 | 37749 ft | 525 kts | 43° |
| 2026-05-07 17:54 | 45.28787 | 6.02589 | 37892 ft | 527 kts | 43° |
| 2026-05-07 17:54 | 45.34024 | 6.09974 | 37971 ft | 529 kts | 44° |
| 2026-05-07 17:55 | 45.39248 | 6.17364 | 37966 ft | 529 kts | 44° |
| 2026-05-07 17:55 | 45.44471 | 6.24776 | 37975 ft | 529 kts | 43° |
| 2026-05-07 17:56 | 45.49692 | 6.32202 | 37971 ft | 529 kts | 44° |
| 2026-05-07 17:56 | 45.54899 | 6.39626 | 37973 ft | 529 kts | 44° |
| 2026-05-07 17:57 | 45.59227 | 6.45816 | 37996 ft | 529 kts | 44° |
| 2026-05-07 17:57 | 45.65279 | 6.54493 | 37985 ft | 528 kts | 44° |
| 2026-05-07 17:58 | 45.70461 | 6.61947 | 37976 ft | 528 kts | 44° |
| 2026-05-07 17:58 | 45.75636 | 6.69409 | 37974 ft | 528 kts | 44° |
| 2026-05-07 17:59 | 45.80816 | 6.76903 | 37978 ft | 528 kts | 44° |
| 2026-05-07 17:59 | 45.85949 | 6.84346 | 37987 ft | 528 kts | 44° |
| 2026-05-07 18:00 | 45.91107 | 6.91846 | 37987 ft | 528 kts | 44° |
| 2026-05-07 18:00 | 45.96264 | 6.99367 | 38004 ft | 528 kts | 44° |
| 2026-05-07 18:01 | 46.01411 | 7.06898 | 37987 ft | 528 kts | 44° |
| 2026-05-07 18:01 | 46.06558 | 7.14442 | 37994 ft | 529 kts | 44° |
| 2026-05-07 18:02 | 46.14296 | 7.25839 | 37984 ft | 531 kts | 44° |
| 2026-05-07 18:03 | 46.19446 | 7.33448 | 37965 ft | 530 kts | 44° |
| 2026-05-07 18:03 | 46.24556 | 7.41013 | 37962 ft | 530 kts | 44° |
| 2026-05-07 18:04 | 46.29701 | 7.48655 | 37970 ft | 530 kts | 44° |
| 2026-05-07 18:04 | 46.34780 | 7.56220 | 37992 ft | 528 kts | 44° |
| 2026-05-07 18:05 | 46.39895 | 7.63829 | 37999 ft | 526 kts | 44° |
| 2026-05-07 18:05 | 46.45003 | 7.71456 | 38009 ft | 527 kts | 44° |
| 2026-05-07 18:06 | 46.50108 | 7.79113 | 38011 ft | 527 kts | 44° |
| 2026-05-07 18:06 | 46.55204 | 7.86792 | 38016 ft | 527 kts | 44° |
| 2026-05-07 18:07 | 46.60348 | 7.94562 | 38021 ft | 528 kts | 44° |
| 2026-05-07 18:07 | 46.65433 | 8.02271 | 38033 ft | 528 kts | 44° |
| 2026-05-07 18:08 | 46.70517 | 8.10000 | 38042 ft | 528 kts | 44° |
| 2026-05-07 18:08 | 46.75590 | 8.17737 | 38026 ft | 527 kts | 44° |
| 2026-05-07 18:09 | 46.80660 | 8.25491 | 38032 ft | 528 kts | 44° |
| 2026-05-07 18:09 | 46.85741 | 8.33279 | 38031 ft | 528 kts | 44° |
| 2026-05-07 18:10 | 46.90806 | 8.41070 | 38036 ft | 527 kts | 44° |
| 2026-05-07 18:10 | 46.95852 | 8.48855 | 38044 ft | 526 kts | 44° |
| 2026-05-07 18:11 | 47.00838 | 8.56569 | 38047 ft | 525 kts | 44° |
| 2026-05-07 18:11 | 47.05861 | 8.64363 | 38050 ft | 525 kts | 44° |
| 2026-05-07 18:12 | 47.10881 | 8.72175 | 38044 ft | 526 kts | 44° |
| 2026-05-07 18:12 | 47.15902 | 8.80014 | 38038 ft | 526 kts | 44° |
| 2026-05-07 18:13 | 47.20914 | 8.87862 | 38037 ft | 526 kts | 45° |
| 2026-05-07 18:13 | 47.25926 | 8.95734 | 38045 ft | 526 kts | 45° |
| 2026-05-07 18:14 | 47.30929 | 9.03618 | 38043 ft | 525 kts | 45° |
| 2026-05-07 18:14 | 47.35713 | 9.11820 | 38043 ft | 528 kts | 54° |
| 2026-05-07 18:15 | 47.39091 | 9.21448 | 38035 ft | 530 kts | 71° |
| 2026-05-07 18:15 | 47.40799 | 9.32054 | 38046 ft | 530 kts | 78° |
| 2026-05-07 18:16 | 47.42253 | 9.42742 | 38047 ft | 530 kts | 78° |
| 2026-05-07 18:16 | 47.43716 | 9.53431 | 38034 ft | 530 kts | 78° |
| 2026-05-07 18:17 | 47.45194 | 9.64112 | 38022 ft | 530 kts | 78° |
| 2026-05-07 18:17 | 47.46674 | 9.74821 | 38040 ft | 531 kts | 78° |
| 2026-05-07 18:18 | 47.48146 | 9.85545 | 38038 ft | 531 kts | 78° |
| 2026-05-07 18:18 | 47.49607 | 9.96256 | 38048 ft | 531 kts | 78° |
| 2026-05-07 18:19 | 47.51062 | 10.07005 | 38052 ft | 531 kts | 79° |
| 2026-05-07 18:19 | 47.52507 | 10.17752 | 38053 ft | 532 kts | 79° |
| 2026-05-07 18:20 | 47.53934 | 10.28445 | 38050 ft | 532 kts | 79° |
| 2026-05-07 18:20 | 47.55358 | 10.39208 | 38053 ft | 531 kts | 79° |
| 2026-05-07 18:21 | 47.56771 | 10.49962 | 38053 ft | 531 kts | 79° |
| 2026-05-07 18:21 | 47.58212 | 10.61021 | 38049 ft | 531 kts | 79° |
| 2026-05-07 18:22 | 47.59614 | 10.71864 | 38049 ft | 531 kts | 79° |
| 2026-05-07 18:22 | 47.60986 | 10.82557 | 38044 ft | 531 kts | 79° |
| 2026-05-07 18:23 | 47.62359 | 10.93344 | 38047 ft | 531 kts | 79° |
| 2026-05-07 18:23 | 47.63723 | 11.04133 | 38039 ft | 532 kts | 79° |
| 2026-05-07 18:24 | 47.65076 | 11.14941 | 38042 ft | 533 kts | 79° |
| 2026-05-07 18:24 | 47.66423 | 11.25781 | 38041 ft | 532 kts | 79° |
| 2026-05-07 18:25 | 47.67756 | 11.36592 | 38041 ft | 531 kts | 80° |
| 2026-05-07 18:25 | 47.69076 | 11.47383 | 38045 ft | 531 kts | 80° |
| 2026-05-07 18:26 | 47.70387 | 11.58199 | 38044 ft | 531 kts | 80° |
| 2026-05-07 18:26 | 47.71690 | 11.69007 | 38047 ft | 531 kts | 80° |
| 2026-05-07 18:27 | 47.72985 | 11.79839 | 38049 ft | 531 kts | 80° |
| 2026-05-07 18:27 | 47.74246 | 11.90666 | 38047 ft | 531 kts | 81° |
| 2026-05-07 18:28 | 47.75504 | 12.01424 | 38055 ft | 531 kts | 81° |
| 2026-05-07 18:28 | 47.76775 | 12.12257 | 38056 ft | 531 kts | 81° |
| 2026-05-07 18:29 | 47.78031 | 12.23081 | 38062 ft | 531 kts | 81° |
| 2026-05-07 18:29 | 47.79273 | 12.33906 | 38064 ft | 529 kts | 81° |
| 2026-05-07 18:30 | 47.80499 | 12.44712 | 38064 ft | 529 kts | 81° |
| 2026-05-07 18:30 | 47.81718 | 12.55560 | 38065 ft | 529 kts | 81° |
| 2026-05-07 18:31 | 47.82922 | 12.66375 | 38064 ft | 529 kts | 81° |
| 2026-05-07 18:31 | 47.84107 | 12.77117 | 37544 ft | 520 kts | 81° |
| 2026-05-07 18:31 | 47.84691 | 12.82442 | 36822 ft | 520 kts | 81° |
| 2026-05-07 18:32 | 47.85074 | 12.85961 | 36390 ft | 519 kts | 81° |
| 2026-05-07 18:32 | 47.85653 | 12.91289 | 35778 ft | 518 kts | 81° |
| 2026-05-07 18:32 | 47.86224 | 12.96581 | 35124 ft | 518 kts | 81° |
| 2026-05-07 18:32 | 47.86795 | 13.01886 | 34461 ft | 518 kts | 81° |
| 2026-05-07 18:33 | 47.87365 | 13.07200 | 33728 ft | 519 kts | 81° |
| 2026-05-07 18:33 | 47.87933 | 13.12519 | 32947 ft | 519 kts | 81° |
| 2026-05-07 18:33 | 47.88502 | 13.17863 | 32179 ft | 518 kts | 81° |
| 2026-05-07 18:33 | 47.89064 | 13.23172 | 31470 ft | 517 kts | 81° |
| 2026-05-07 18:34 | 47.89623 | 13.28466 | 30765 ft | 515 kts | 81° |
| 2026-05-07 18:34 | 47.90172 | 13.33728 | 30036 ft | 514 kts | 81° |
| 2026-05-07 18:34 | 47.90717 | 13.38968 | 29544 ft | 506 kts | 81° |
| 2026-05-07 18:34 | 47.91249 | 13.44125 | 28938 ft | 500 kts | 82° |
| 2026-05-07 18:35 | 47.91636 | 13.49291 | 28096 ft | 501 kts | 85° |
| 2026-05-07 18:35 | 47.91809 | 13.54494 | 27520 ft | 496 kts | 89° |
| 2026-05-07 18:35 | 47.91816 | 13.59627 | 26952 ft | 492 kts | 90° |
| 2026-05-07 18:35 | 47.91784 | 13.64645 | 26365 ft | 488 kts | 91° |
| 2026-05-07 18:36 | 47.91745 | 13.69685 | 25770 ft | 484 kts | 91° |
| 2026-05-07 18:36 | 47.91709 | 13.74691 | 25231 ft | 480 kts | 91° |
| 2026-05-07 18:36 | 47.91675 | 13.79649 | 24682 ft | 476 kts | 91° |
| 2026-05-07 18:36 | 47.91645 | 13.84570 | 24136 ft | 472 kts | 90° |
| 2026-05-07 18:37 | 47.91615 | 13.89457 | 23601 ft | 469 kts | 90° |
| 2026-05-07 18:37 | 47.91584 | 13.94303 | 22975 ft | 465 kts | 90° |
| 2026-05-07 18:37 | 47.91550 | 13.99109 | 22380 ft | 461 kts | 90° |
| 2026-05-07 18:37 | 47.91513 | 14.03895 | 21783 ft | 457 kts | 90° |
| 2026-05-07 18:38 | 47.91474 | 14.08617 | 21206 ft | 453 kts | 90° |
| 2026-05-07 18:38 | 47.91435 | 14.13332 | 20644 ft | 449 kts | 91° |
| 2026-05-07 18:38 | 47.91394 | 14.17961 | 20119 ft | 445 kts | 91° |
| 2026-05-07 18:38 | 47.91349 | 14.22570 | 19588 ft | 441 kts | 91° |
| 2026-05-07 18:39 | 47.91302 | 14.27130 | 19040 ft | 438 kts | 91° |
| 2026-05-07 18:39 | 47.91254 | 14.31662 | 18496 ft | 435 kts | 91° |
| 2026-05-07 18:39 | 47.91204 | 14.36151 | 17920 ft | 432 kts | 91° |
| 2026-05-07 18:39 | 47.91153 | 14.40618 | 17340 ft | 428 kts | 91° |
| 2026-05-07 18:40 | 47.91102 | 14.45046 | 16780 ft | 425 kts | 91° |
| 2026-05-07 18:40 | 47.91051 | 14.49435 | 16257 ft | 420 kts | 91° |
| 2026-05-07 18:40 | 47.91000 | 14.53762 | 16053 ft | 417 kts | 91° |
| 2026-05-07 18:40 | 47.90946 | 14.58087 | 16052 ft | 417 kts | 91° |
| 2026-05-07 18:41 | 47.90890 | 14.62414 | 16049 ft | 416 kts | 91° |
| 2026-05-07 18:41 | 47.90832 | 14.66740 | 16047 ft | 416 kts | 91° |
| 2026-05-07 18:41 | 47.90772 | 14.71034 | 16053 ft | 416 kts | 91° |
| 2026-05-07 18:41 | 47.90710 | 14.75380 | 16053 ft | 416 kts | 91° |
| 2026-05-07 18:42 | 47.90648 | 14.79705 | 16043 ft | 416 kts | 91° |
| 2026-05-07 18:42 | 47.90603 | 14.84029 | 16049 ft | 417 kts | 89° |
| 2026-05-07 18:42 | 47.91144 | 14.88246 | 16011 ft | 415 kts | 69° |
| 2026-05-07 18:42 | 47.92318 | 14.92184 | 16053 ft | 415 kts | 63° |
| 2026-05-07 18:43 | 47.93601 | 14.96035 | 16047 ft | 415 kts | 62° |
| 2026-05-07 18:43 | 47.94871 | 14.99907 | 16037 ft | 415 kts | 63° |
| 2026-05-07 18:43 | 47.96104 | 15.03809 | 16042 ft | 413 kts | 64° |
| 2026-05-07 18:43 | 47.97294 | 15.07702 | 16042 ft | 412 kts | 65° |
| 2026-05-07 18:44 | 47.98467 | 15.11619 | 16036 ft | 412 kts | 65° |
| 2026-05-07 18:44 | 47.99628 | 15.15542 | 16042 ft | 412 kts | 65° |
| 2026-05-07 18:44 | 48.00786 | 15.19480 | 16037 ft | 412 kts | 65° |
| 2026-05-07 18:44 | 48.01936 | 15.23408 | 16041 ft | 412 kts | 65° |
| 2026-05-07 18:45 | 48.03083 | 15.27339 | 16040 ft | 412 kts | 65° |
| 2026-05-07 18:45 | 48.04227 | 15.31268 | 16041 ft | 412 kts | 65° |
| 2026-05-07 18:45 | 48.05370 | 15.35204 | 16041 ft | 412 kts | 66° |
| 2026-05-07 18:45 | 48.06503 | 15.39111 | 15786 ft | 406 kts | 66° |
| 2026-05-07 18:46 | 48.07629 | 15.43003 | 15071 ft | 409 kts | 66° |
| 2026-05-07 18:46 | 48.08742 | 15.46859 | 14516 ft | 407 kts | 66° |
| 2026-05-07 18:46 | 48.09858 | 15.50730 | 14014 ft | 403 kts | 66° |
| 2026-05-07 18:46 | 48.10965 | 15.54568 | 13467 ft | 400 kts | 66° |
| 2026-05-07 18:47 | 48.12058 | 15.58368 | 13074 ft | 394 kts | 66° |
| 2026-05-07 18:47 | 48.13143 | 15.62150 | 13034 ft | 396 kts | 66° |
| 2026-05-07 18:47 | 48.14231 | 15.65948 | 13030 ft | 395 kts | 66° |
| 2026-05-07 18:47 | 48.15316 | 15.69741 | 13028 ft | 395 kts | 66° |
| 2026-05-07 18:48 | 48.16378 | 15.73459 | 13012 ft | 379 kts | 66° |
| 2026-05-07 18:48 | 48.17391 | 15.77012 | 12926 ft | 364 kts | 66° |
| 2026-05-07 18:48 | 48.18376 | 15.80476 | 12587 ft | 358 kts | 66° |
| 2026-05-07 18:48 | 48.19347 | 15.83896 | 12250 ft | 352 kts | 66° |
| 2026-05-07 18:49 | 48.20297 | 15.87246 | 11938 ft | 346 kts | 66° |
| 2026-05-07 18:49 | 48.21234 | 15.90548 | 11629 ft | 340 kts | 66° |
| 2026-05-07 18:49 | 48.22152 | 15.93787 | 11306 ft | 335 kts | 66° |
| 2026-05-07 18:49 | 48.23056 | 15.96985 | 10998 ft | 330 kts | 66° |
| 2026-05-07 18:50 | 48.23944 | 16.00132 | 10687 ft | 325 kts | 66° |
| 2026-05-07 18:50 | 48.24825 | 16.03255 | 10377 ft | 320 kts | 66° |
| 2026-05-07 18:50 | 48.25686 | 16.06317 | 10087 ft | 316 kts | 66° |
| 2026-05-07 18:50 | 48.26410 | 16.09408 | 9823 ft | 310 kts | 73° |
| 2026-05-07 18:51 | 48.26955 | 16.12497 | 9623 ft | 301 kts | 74° |
| 2026-05-07 18:51 | 48.27453 | 16.15517 | 9373 ft | 295 kts | 75° |
| 2026-05-07 18:51 | 48.27940 | 16.18493 | 9038 ft | 292 kts | 75° |
| 2026-05-07 18:51 | 48.28420 | 16.21452 | 8670 ft | 291 kts | 75° |
| 2026-05-07 18:52 | 48.28890 | 16.24368 | 8307 ft | 290 kts | 75° |
| 2026-05-07 18:52 | 48.29364 | 16.27309 | 7961 ft | 289 kts | 75° |
| 2026-05-07 18:52 | 48.29708 | 16.30267 | 7521 ft | 288 kts | 90° |
| 2026-05-07 18:52 | 48.29635 | 16.33260 | 7163 ft | 284 kts | 91° |
| 2026-05-07 18:53 | 48.29589 | 16.36214 | 6782 ft | 281 kts | 90° |
| 2026-05-07 18:53 | 48.29552 | 16.39135 | 6416 ft | 277 kts | 90° |
| 2026-05-07 18:53 | 48.29516 | 16.42009 | 6030 ft | 273 kts | 90° |
| 2026-05-07 18:53 | 48.29481 | 16.44854 | 5636 ft | 270 kts | 90° |
| 2026-05-07 18:54 | 48.29331 | 16.47628 | 5183 ft | 264 kts | 107° |
| 2026-05-07 18:54 | 48.28453 | 16.49974 | 4772 ft | 255 kts | 138° |
| 2026-05-07 18:54 | 48.27022 | 16.51417 | 4394 ft | 244 kts | 158° |
| 2026-05-07 18:54 | 48.25430 | 16.52227 | 4120 ft | 241 kts | 165° |
| 2026-05-07 18:55 | 48.23804 | 16.52908 | 3790 ft | 242 kts | 165° |
| 2026-05-07 18:55 | 48.22228 | 16.53757 | 3515 ft | 241 kts | 147° |
| 2026-05-07 18:55 | 48.21098 | 16.55567 | 3244 ft | 240 kts | 115° |
| 2026-05-07 18:55 | 48.20778 | 16.57972 | 3025 ft | 234 kts | 84° |
| 2026-05-07 18:56 | 48.21027 | 16.60321 | 2995 ft | 224 kts | 77° |
| 2026-05-07 18:56 | 48.21393 | 16.62664 | 3013 ft | 234 kts | 75° |
| 2026-05-07 18:56 | 48.21862 | 16.65012 | 2978 ft | 235 kts | 60° |
| 2026-05-07 18:56 | 48.22957 | 16.66780 | 2972 ft | 233 kts | 27° |
| 2026-05-07 18:57 | 48.24493 | 16.67369 | 3004 ft | 230 kts | 356° |
| 2026-05-07 18:57 | 48.26073 | 16.67054 | 3024 ft | 229 kts | 347° |
| 2026-05-07 18:57 | 48.27572 | 16.66318 | 2966 ft | 226 kts | 324° |
| 2026-05-07 18:57 | 48.28583 | 16.64568 | 2972 ft | 225 kts | 291° |
| 2026-05-07 18:58 | 48.28956 | 16.62287 | 3019 ft | 225 kts | 278° |
| 2026-05-07 18:58 | 48.29138 | 16.59952 | 3006 ft | 225 kts | 275° |
| 2026-05-07 18:58 | 48.29285 | 16.57612 | 2994 ft | 225 kts | 275° |
| 2026-05-07 18:58 | 48.29249 | 16.55273 | 2963 ft | 225 kts | 252° |
| 2026-05-07 18:59 | 48.28417 | 16.53307 | 2975 ft | 227 kts | 219° |
| 2026-05-07 18:59 | 48.26988 | 16.52324 | 3010 ft | 231 kts | 191° |
| 2026-05-07 18:59 | 48.25379 | 16.52240 | 3019 ft | 232 kts | 174° |
| 2026-05-07 18:59 | 48.23836 | 16.52712 | 2966 ft | 222 kts | 165° |
| 2026-05-07 19:00 | 48.22375 | 16.53374 | 2767 ft | 218 kts | 163° |
| 2026-05-07 19:00 | 48.20969 | 16.54021 | 2513 ft | 209 kts | 165° |
| 2026-05-07 19:00 | 48.19590 | 16.54616 | 2191 ft | 199 kts | 166° |
| 2026-05-07 19:00 | 48.18291 | 16.55157 | 1912 ft | 189 kts | 166° |
| 2026-05-07 19:01 | 48.17059 | 16.55672 | 1666 ft | 179 kts | 166° |
| 2026-05-07 19:01 | 48.15898 | 16.56162 | 1435 ft | 168 kts | 166° |
| 2026-05-07 19:01 | 48.14809 | 16.56624 | 1208 ft | 157 kts | 167° |
| 2026-05-07 19:01 | 48.13785 | 16.57055 | 1010 ft | 154 kts | 167° |
| 2026-05-07 19:02 | 48.12743 | 16.57488 | 798 ft | 152 kts | 167° |
| 2026-05-07 19:02 | 48.11729 | 16.57917 | 639 ft | 150 kts | 167° |
| 2026-05-07 19:02 | 48.10930 | 16.58255 | 630 ft | 80 kts | 163° |
| 2026-05-07 19:02 | 48.10539 | 16.58420 | 628 ft | 48 kts | 164° |
| 2026-05-07 19:03 | 48.10299 | 16.58457 | 630 ft | 29 kts | 186° |
| 2026-05-07 19:03 | 48.10167 | 16.58414 | 632 ft | 9 kts | 197° |
| 2026-05-07 19:03 | 48.10115 | 16.58349 | 628 ft | 11 kts | 249° |
| 2026-05-07 19:03 | 48.10102 | 16.58222 | 624 ft | 13 kts | 289° |
| 2026-05-07 19:04 | 48.10182 | 16.58160 | 630 ft | 15 kts | 344° |
| 2026-05-07 19:04 | 48.10295 | 16.58111 | 628 ft | 18 kts | 343° |
| 2026-05-07 19:04 | 48.10429 | 16.58054 | 629 ft | 21 kts | 344° |
| 2026-05-07 19:04 | 48.10582 | 16.57989 | 631 ft | 24 kts | 344° |
| 2026-05-07 19:05 | 48.10751 | 16.57917 | 625 ft | 26 kts | 344° |
| 2026-05-07 19:05 | 48.10935 | 16.57839 | 629 ft | 27 kts | 344° |
| 2026-05-07 19:05 | 48.11044 | 16.57794 | 626 ft | 15 kts | 344° |
| 2026-05-07 19:05 | 48.11150 | 16.57723 | 627 ft | 18 kts | 308° |
| 2026-05-07 19:06 | 48.11213 | 16.57546 | 621 ft | 21 kts | 295° |
| 2026-05-07 19:06 | 48.11354 | 16.57109 | 625 ft | 26 kts | 296° |
| 2026-05-07 19:06 | 48.11424 | 16.56896 | 629 ft | 3 kts | 296° |
| 2026-05-07 19:07 | 48.11437 | 16.56857 | 629 ft | 6 kts | 296° |
| 2026-05-07 19:07 | 48.11460 | 16.56786 | 629 ft | 9 kts | 296° |
| 2026-05-07 19:07 | 48.11494 | 16.56683 | 622 ft | 13 kts | 296° |
| 2026-05-07 19:07 | 48.11534 | 16.56559 | 627 ft | 14 kts | 296° |
| 2026-05-07 19:08 | 48.11582 | 16.56414 | 630 ft | 17 kts | 296° |
| 2026-05-07 19:08 | 48.11640 | 16.56237 | 625 ft | 20 kts | 296° |
| 2026-05-07 19:08 | 48.11704 | 16.56040 | 628 ft | 22 kts | 296° |
| 2026-05-07 19:08 | 48.11773 | 16.55830 | 630 ft | 23 kts | 296° |
| 2026-05-07 19:09 | 48.11840 | 16.55623 | 628 ft | 21 kts | 296° |
| 2026-05-07 19:09 | 48.11892 | 16.55437 | 627 ft | 18 kts | 291° |
| 2026-05-07 19:09 | 48.11943 | 16.55266 | 628 ft | 18 kts | 296° |
| 2026-05-07 19:09 | 48.11999 | 16.55096 | 621 ft | 18 kts | 296° |
| 2026-05-07 19:10 | 48.12030 | 16.55013 | 623 ft | 4 kts | 319° |
| 2026-05-07 19:10 | 48.12031 | 16.55012 | 624 ft | 0 kts | 322° |
| 2026-05-07 19:10 | 48.12033 | 16.55010 | 624 ft | 0 kts | 326° |
| 2026-05-07 19:10 | 48.12034 | 16.55010 | 624 ft | 0 kts | 329° |
| 2026-05-07 19:11 | 48.12037 | 16.55008 | 632 ft | 1 kts | 340° |
| 2026-05-07 19:11 | 48.12052 | 16.55008 | 628 ft | 3 kts | 19° |
| 2026-05-07 19:11 | 48.12078 | 16.55025 | 631 ft | 4 kts | 24° |
| 2026-05-07 19:11 | 48.12103 | 16.55042 | 624 ft | 3 kts | 25° |
| 2026-05-07 19:12 | 48.12109 | 16.55046 | 629 ft | 0 kts | 25° |